Time;durP1;ratioP1;P1;durP2;ratioP2;P2;SDS_P1;SDS_P2;PMS_P1;PMS_P2;Temp;Humidity;BMP_temperature;BMP_pressure;BME280_temperature;BME280_humidity;BME280_pressure;Samples;Min_cycle;Max_cycle;Signal;HPM_P1;HPM_P2
2022/12/20 00:03:52;;;;;;;23.17;19.17;;;4.20;42.10;;;;;;10422222;28;20936;-70
2022/12/20 00:08:58;;;;;;;23.83;18.87;;;4.20;42.10;;;;;;10429302;28;20233;-70
2022/12/20 00:14:01;;;;;;;20.13;15.17;;;4.20;42.10;;;;;;10423092;28;20221;-71
2022/12/20 00:19:06;;;;;;;22.40;18.07;;;4.20;42.20;;;;;;10423811;28;20233;-70
2022/12/20 00:24:11;;;;;;;22.13;18.27;;;4.20;42.10;;;;;;10419746;28;20229;-70
2022/12/20 00:29:14;;;;;;;21.27;18.00;;;4.20;42.10;;;;;;10421768;28;20256;-70
2022/12/20 00:34:18;;;;;;;22.77;17.90;;;4.30;42.20;;;;;;10422956;28;20233;-70
2022/12/20 00:39:22;;;;;;;23.17;18.80;;;4.20;42.00;;;;;;10421855;28;20232;-70
2022/12/20 00:44:27;;;;;;;21.40;17.80;;;4.20;41.90;;;;;;10422410;28;20639;-70
2022/12/20 00:49:30;;;;;;;22.90;17.77;;;4.10;41.80;;;;;;10418720;28;20595;-70
2022/12/20 00:54:35;;;;;;;23.90;18.93;;;4.10;41.90;;;;;;10424363;28;20286;-70
2022/12/20 00:59:38;;;;;;;23.30;18.43;;;4.00;41.90;;;;;;10427523;28;21146;-70
2022/12/20 01:04:41;;;;;;;22.73;18.40;;;4.00;41.90;;;;;;10430730;28;20230;-70
2022/12/20 01:09:45;;;;;;;24.63;19.33;;;4.00;41.90;;;;;;10419897;28;20244;-70
2022/12/20 01:14:48;;;;;;;23.93;18.47;;;4.00;41.90;;;;;;10434340;28;20232;-70
2022/12/20 01:19:51;;;;;;;21.43;17.80;;;4.00;41.90;;;;;;10426566;28;20762;-70
2022/12/20 01:24:56;;;;;;;22.20;18.23;;;4.00;41.90;;;;;;10431750;28;20228;-70
2022/12/20 01:29:59;;;;;;;22.43;18.10;;;4.00;41.90;;;;;;10427889;28;20233;-70
2022/12/20 01:35:02;;;;;;;21.90;17.43;;;4.00;41.90;;;;;;10423874;28;20217;-70
2022/12/20 01:40:09;;;;;;;19.37;16.27;;;3.90;41.80;;;;;;10430456;28;20226;-70
2022/12/20 01:45:23;;;;;;;21.37;17.50;;;3.90;41.80;;;;;;10421927;28;20827;-70
2022/12/20 01:50:28;;;;;;;21.00;17.03;;;3.90;42.10;;;;;;10424136;28;20344;-70
2022/12/20 01:55:33;;;;;;;19.47;15.87;;;3.90;42.00;;;;;;10434406;28;20782;-70
2022/12/20 02:00:37;;;;;;;20.27;16.17;;;3.90;42.20;;;;;;10426866;28;20242;-70
2022/12/20 02:05:43;;;;;;;21.53;17.20;;;3.90;41.90;;;;;;10427097;28;20225;-70
2022/12/20 02:11:08;;;;;;;21.73;17.13;;;3.90;42.00;;;;;;10424390;28;20244;-70
2022/12/20 02:16:19;;;;;;;18.80;16.40;;;3.90;42.00;;;;;;10429296;28;20217;-70
2022/12/20 02:21:31;;;;;;;20.73;17.00;;;3.90;41.90;;;;;;10429693;28;20240;-70
2022/12/20 02:27:00;;;;;;;20.40;17.10;;;3.90;41.90;;;;;;10428654;28;20287;-70
2022/12/20 02:32:12;;;;;;;19.93;16.67;;;3.90;42.10;;;;;;10429686;28;20217;-71
2022/12/20 02:37:16;;;;;;;19.23;16.30;;;3.90;42.00;;;;;;10428745;28;20230;-70
2022/12/20 02:42:23;;;;;;;20.93;17.67;;;3.90;42.00;;;;;;10422403;28;20242;-70
2022/12/20 02:47:33;;;;;;;21.60;17.43;;;4.00;41.90;;;;;;10428810;28;20234;-70
2022/12/20 02:52:37;;;;;;;22.00;17.70;;;3.80;41.90;;;;;;10423568;28;20229;-70
2022/12/20 02:57:48;;;;;;;20.57;16.73;;;3.80;41.90;;;;;;10424909;28;20233;-70
2022/12/20 03:08:20;;;;;;;20.93;16.70;;;3.80;42.00;;;;;;10422644;28;20229;-70
2022/12/20 03:13:25;;;;;;;19.23;16.27;;;3.90;42.00;;;;;;10423478;28;20247;-70
2022/12/20 03:18:29;;;;;;;20.13;15.17;;;3.80;42.00;;;;;;10422859;28;20800;-70
2022/12/20 03:23:32;;;;;;;20.73;16.43;;;3.80;41.90;;;;;;10420817;28;20709;-70
2022/12/20 03:28:36;;;;;;;21.60;17.70;;;3.80;42.10;;;;;;10422743;28;20227;-70
2022/12/20 03:33:40;;;;;;;19.77;16.80;;;4.00;42.30;;;;;;10422063;28;20290;-70
2022/12/20 03:38:43;;;;;;;21.37;16.93;;;3.90;42.30;;;;;;10423302;28;20740;-70
2022/12/20 03:43:46;;;;;;;20.63;16.40;;;3.90;42.30;;;;;;10420427;28;20245;-70
2022/12/20 03:48:51;;;;;;;23.07;17.57;;;3.80;42.10;;;;;;10423637;28;20241;-70
2022/12/20 03:53:54;;;;;;;20.77;17.23;;;3.80;42.10;;;;;;10426410;28;20232;-70
2022/12/20 03:58:57;;;;;;;20.90;17.03;;;3.80;42.10;;;;;;10420435;28;20596;-70
2022/12/20 04:04:02;;;;;;;21.97;16.83;;;3.80;42.00;;;;;;10428785;28;20232;-70
2022/12/20 04:09:05;;;;;;;16.97;14.20;;;3.80;43.00;;;;;;10425717;28;21007;-70
2022/12/20 04:14:09;;;;;;;21.80;17.50;;;3.80;42.30;;;;;;10426122;28;20236;-70
2022/12/20 04:19:13;;;;;;;21.20;17.60;;;3.70;42.20;;;;;;10421698;28;20221;-70
2022/12/20 04:24:17;;;;;;;18.37;14.73;;;3.80;42.50;;;;;;10426885;28;20232;-70
2022/12/20 04:29:20;;;;;;;20.17;16.90;;;3.90;42.60;;;;;;10424376;28;20226;-70
2022/12/20 04:34:24;;;;;;;22.27;16.90;;;3.80;42.40;;;;;;10429050;28;20225;-70
2022/12/20 04:39:28;;;;;;;17.97;14.83;;;3.80;42.30;;;;;;10425986;28;20228;-70
2022/12/20 04:44:31;;;;;;;18.70;15.40;;;3.80;42.30;;;;;;10430541;28;20225;-70
2022/12/20 04:49:35;;;;;;;19.80;16.90;;;3.80;42.30;;;;;;10434023;28;20237;-70
2022/12/20 04:54:38;;;;;;;19.77;16.13;;;3.80;42.30;;;;;;10429511;28;20693;-70
2022/12/20 04:59:42;;;;;;;19.30;16.30;;;3.80;42.30;;;;;;10437046;28;20275;-70
2022/12/20 05:04:47;;;;;;;20.90;17.27;;;3.80;42.40;;;;;;10430007;28;20225;-70
2022/12/20 05:09:50;;;;;;;18.63;15.93;;;3.90;42.50;;;;;;10434995;28;20232;-70
2022/12/20 05:14:53;;;;;;;19.73;16.37;;;3.70;42.30;;;;;;10428493;28;20236;-70
2022/12/20 05:19:57;;;;;;;18.83;16.07;;;3.80;42.40;;;;;;10431977;28;20776;-70
2022/12/20 05:30:21;;;;;;;20.43;16.20;;;3.80;42.40;;;;;;10430308;28;20220;-70
2022/12/20 05:35:26;;;;;;;20.20;16.07;;;3.80;42.30;;;;;;10425676;28;20640;-71
2022/12/20 05:40:29;;;;;;;20.03;16.47;;;3.70;42.30;;;;;;10430458;28;20229;-70
2022/12/20 05:45:32;;;;;;;19.03;15.63;;;3.80;42.30;;;;;;10425936;28;20229;-72
2022/12/20 05:50:37;;;;;;;19.37;16.10;;;3.80;42.20;;;;;;10428040;28;20239;-70
2022/12/20 05:55:44;;;;;;;24.47;18.97;;;3.70;42.20;;;;;;10446961;28;20562;-69
2022/12/20 06:00:47;;;;;;;20.77;15.80;;;3.70;42.40;;;;;;10451270;28;20240;-68
2022/12/20 06:05:52;;;;;;;19.00;15.20;;;3.70;42.40;;;;;;10438919;28;20308;-72
2022/12/20 06:10:55;;;;;;;18.50;15.60;;;3.70;42.50;;;;;;10435467;28;20224;-73
2022/12/20 06:15:59;;;;;;;19.93;14.90;;;3.70;42.60;;;;;;10441901;28;20228;-74
2022/12/20 06:21:04;;;;;;;17.80;14.67;;;3.70;42.70;;;;;;10434677;28;20293;-73
2022/12/20 06:26:08;;;;;;;16.10;12.80;;;3.80;43.00;;;;;;10437009;28;20232;-72
2022/12/20 06:31:11;;;;;;;17.27;15.27;;;3.80;43.70;;;;;;10433339;28;20226;-72
2022/12/20 06:36:16;;;;;;;18.27;14.93;;;4.00;43.90;;;;;;10430912;28;20251;-72
2022/12/20 06:41:19;;;;;;;19.13;15.57;;;4.00;43.50;;;;;;10438417;28;20229;-72
2022/12/20 06:46:22;;;;;;;19.60;16.87;;;4.00;43.10;;;;;;10433458;28;20245;-73
2022/12/20 06:51:27;;;;;;;19.73;16.80;;;4.00;42.80;;;;;;10434683;28;20694;-72
2022/12/20 06:56:30;;;;;;;20.93;17.87;;;4.00;42.70;;;;;;10432980;28;20220;-71
2022/12/20 07:01:41;;;;;;;21.20;17.07;;;4.00;42.70;;;;;;10433514;28;20225;-72
2022/12/20 07:06:46;;;;;;;18.03;15.00;;;4.10;42.70;;;;;;10430430;28;20820;-72
2022/12/20 07:11:49;;;;;;;19.07;15.93;;;3.90;42.60;;;;;;10429494;28;20456;-71
2022/12/20 07:16:52;;;;;;;20.00;17.03;;;3.90;42.70;;;;;;10427354;28;20240;-71
2022/12/20 07:21:57;;;;;;;20.13;16.93;;;4.00;42.70;;;;;;10428602;28;20225;-72
2022/12/20 07:27:01;;;;;;;20.50;17.37;;;3.90;42.70;;;;;;10425904;28;20236;-71
2022/12/20 07:32:04;;;;;;;20.77;17.10;;;3.90;42.80;;;;;;10427814;28;20220;-71
2022/12/20 07:37:09;;;;;;;20.27;16.80;;;3.90;42.60;;;;;;10427672;28;20217;-71
2022/12/20 07:42:12;;;;;;;20.67;17.00;;;3.90;42.70;;;;;;10428140;28;20237;-72
2022/12/20 07:47:16;;;;;;;19.43;16.90;;;3.90;42.70;;;;;;10427026;28;20221;-71
2022/12/20 07:52:23;;;;;;;18.80;16.10;;;3.90;42.90;;;;;;10427405;28;20312;-72
2022/12/20 07:57:31;;;;;;;18.03;15.30;;;3.90;43.00;;;;;;10427813;28;20232;-72
2022/12/20 08:02:40;;;;;;;20.47;16.70;;;3.90;43.00;;;;;;10431487;28;20228;-72
2022/12/20 08:07:47;;;;;;;20.10;15.90;;;4.00;43.00;;;;;;10430706;28;20225;-73
2022/12/20 08:12:58;;;;;;;18.47;15.83;;;3.90;43.10;;;;;;10430225;28;20229;-72
2022/12/20 08:18:01;;;;;;;18.83;16.23;;;3.90;43.00;;;;;;10428454;28;20225;-72
2022/12/20 08:23:06;;;;;;;21.93;18.07;;;4.00;43.00;;;;;;10431530;28;20692;-72
2022/12/20 08:28:09;;;;;;;19.50;16.70;;;4.00;43.10;;;;;;10443594;28;20255;-69
2022/12/20 08:33:12;;;;;;;20.20;17.10;;;4.00;43.10;;;;;;10412378;28;20225;-69
2022/12/20 08:38:17;;;;;;;20.30;17.53;;;4.10;43.20;;;;;;10415886;28;20220;-69
2022/12/20 08:43:20;;;;;;;20.13;17.27;;;4.20;43.30;;;;;;10424600;28;20705;-69
2022/12/20 08:48:23;;;;;;;19.80;16.70;;;4.20;43.20;;;;;;10437392;28;20240;-69
2022/12/20 08:53:29;;;;;;;21.17;17.63;;;4.20;43.20;;;;;;10424920;28;20234;-69
2022/12/20 08:58:32;;;;;;;17.70;15.07;;;4.20;43.30;;;;;;10411709;28;20232;-69
2022/12/20 09:03:36;;;;;;;18.30;15.23;;;4.30;43.20;;;;;;10411837;28;20599;-69
2022/12/20 09:08:42;;;;;;;21.67;17.20;;;4.30;43.30;;;;;;10411536;28;20741;-69
2022/12/20 09:13:47;;;;;;;20.30;17.53;;;4.30;43.30;;;;;;10411234;28;20674;-69
2022/12/20 09:18:50;;;;;;;21.23;17.83;;;4.30;43.30;;;;;;10442455;28;20268;-69
2022/12/20 09:23:56;;;;;;;23.47;20.00;;;4.30;43.30;;;;;;10440018;28;20233;-69
2022/12/20 09:29:00;;;;;;;21.00;18.73;;;4.40;43.50;;;;;;10423612;28;20249;-69
2022/12/20 09:34:04;;;;;;;20.37;17.90;;;4.50;43.50;;;;;;10421498;28;20323;-69
2022/12/20 09:39:10;;;;;;;20.83;17.67;;;4.50;43.40;;;;;;10458507;28;20587;-69
2022/12/20 09:44:18;;;;;;;23.90;20.10;;;4.60;43.70;;;;;;10453704;28;20233;-69
2022/12/20 09:49:28;;;;;;;25.30;20.27;;;4.60;43.70;;;;;;10426462;28;20284;-69
2022/12/20 09:54:41;;;;;;;20.10;16.67;;;4.70;43.80;;;;;;10435397;28;20233;-69
2022/12/20 09:59:44;;;;;;;21.67;17.53;;;4.80;44.20;;;;;;10426149;28;20713;-69
2022/12/20 10:04:54;;;;;;;21.93;17.77;;;4.90;44.00;;;;;;10436231;28;20225;-69
2022/12/20 10:10:24;;;;;;;21.70;16.70;;;4.90;44.00;;;;;;10450249;28;20260;-69
2022/12/20 10:15:33;;;;;;;20.93;16.20;;;5.00;44.40;;;;;;10447963;28;20217;-69
2022/12/20 10:20:46;;;;;;;17.03;14.80;;;5.10;44.20;;;;;;10440110;28;20722;-68
2022/12/20 10:25:55;;;;;;;18.53;15.27;;;5.20;44.20;;;;;;10450520;28;20224;-68
2022/12/20 10:31:03;;;;;;;18.73;16.77;;;5.30;44.10;;;;;;10449697;28;20236;-67
2022/12/20 10:36:21;;;;;;;18.57;16.00;;;5.40;44.10;;;;;;10449657;28;20252;-68
2022/12/20 10:41:27;;;;;;;18.63;16.67;;;5.40;44.20;;;;;;10449304;28;20617;-68
2022/12/20 10:46:40;;;;;;;19.90;17.37;;;5.50;44.00;;;;;;10449788;28;20247;-68
2022/12/20 10:51:52;;;;;;;20.67;17.77;;;5.60;44.10;;;;;;10448829;28;20275;-68
2022/12/20 10:56:58;;;;;;;19.70;17.43;;;5.60;44.00;;;;;;10449588;28;20229;-68
2022/12/20 11:02:03;;;;;;;19.50;15.90;;;5.60;43.70;;;;;;10448887;28;20232;-69
2022/12/20 11:07:28;;;;;;;19.10;17.10;;;5.70;44.30;;;;;;10448938;28;20287;-68
2022/12/20 11:12:32;;;;;;;19.30;16.43;;;5.70;44.30;;;;;;10448213;28;20228;-69
2022/12/20 11:17:38;;;;;;;20.53;18.33;;;5.80;43.90;;;;;;10448397;28;20232;-68
2022/12/20 11:22:51;;;;;;;22.10;19.73;;;5.80;43.70;;;;;;10436897;28;20252;-69
2022/12/20 11:28:09;;;;;;;23.27;19.63;;;5.80;43.60;;;;;;10423703;28;20228;-69
2022/12/20 11:33:46;;;;;;;22.77;20.33;;;5.90;43.50;;;;;;10425555;28;20221;-70
2022/12/20 11:38:58;;;;;;;21.73;19.27;;;5.90;44.00;;;;;;10417040;28;20595;-71
2022/12/20 11:44:14;;;;;;;23.27;20.57;;;5.90;43.50;;;;;;10421658;28;20613;-69
2022/12/20 11:49:57;;;;;;;24.13;21.53;;;6.00;43.50;;;;;;10419767;28;20231;-71
2022/12/20 11:55:14;;;;;;;22.30;18.93;;;6.00;43.50;;;;;;10411202;28;20228;-70
2022/12/20 12:00:21;;;;;;;20.53;18.27;;;6.00;43.50;;;;;;10410180;28;20280;-71
2022/12/20 12:05:29;;;;;;;20.93;17.97;;;6.00;43.60;;;;;;10372834;28;20250;-70
2022/12/20 12:10:37;;;;;;;20.90;18.73;;;6.00;43.50;;;;;;10373944;28;20619;-71
2022/12/20 12:15:51;;;;;;;24.83;19.97;;;6.00;43.50;;;;;;10373343;28;20231;-71
2022/12/20 12:21:00;;;;;;;19.93;17.90;;;6.10;43.70;;;;;;10389458;28;20254;-71
2022/12/20 12:26:15;;;;;;;21.37;18.27;;;6.10;43.60;;;;;;10395006;28;20218;-71
2022/12/20 12:31:28;;;;;;;20.30;17.60;;;6.20;43.70;;;;;;10383168;28;20225;-72
2022/12/20 12:36:46;;;;;;;20.67;18.13;;;6.20;43.70;;;;;;10379927;28;20225;-71
2022/12/20 12:42:16;;;;;;;20.00;15.30;;;6.30;43.80;;;;;;10380608;28;20693;-71
2022/12/20 12:47:24;;;;;;;19.97;17.87;;;6.30;46.00;;;;;;10384108;28;20233;-70
2022/12/20 12:52:49;;;;;;;21.80;18.60;;;6.40;44.60;;;;;;10379178;28;20592;-71
2022/12/20 12:57:56;;;;;;;20.20;18.13;;;6.50;43.90;;;;;;10392028;28;20222;-71
2022/12/20 13:03:14;;;;;;;22.80;20.07;;;6.60;44.00;;;;;;10373763;28;20218;-70
2022/12/20 13:08:17;;;;;;;18.77;16.70;;;6.60;43.70;;;;;;10377351;28;20222;-70
2022/12/20 13:13:23;;;;;;;21.10;17.67;;;6.60;43.70;;;;;;10374346;28;20845;-70
2022/12/20 13:18:28;;;;;;;20.87;18.67;;;6.70;43.70;;;;;;10376343;28;20229;-70
2022/12/20 13:23:31;;;;;;;21.37;18.47;;;6.70;43.60;;;;;;10379059;28;20229;-71
2022/12/20 13:28:45;;;;;;;21.03;18.87;;;6.70;43.50;;;;;;10376927;28;20217;-71
2022/12/20 13:33:50;;;;;;;22.37;20.00;;;6.70;43.60;;;;;;10374559;28;20301;-70
2022/12/20 13:38:59;;;;;;;26.80;21.40;;;6.70;43.70;;;;;;10381491;28;20672;-70
2022/12/20 13:44:41;;;;;;;21.20;17.83;;;6.70;43.70;;;;;;10379860;28;20221;-72
2022/12/20 13:49:46;;;;;;;20.00;17.60;;;6.80;47.80;;;;;;10377225;28;20228;-70
2022/12/20 13:54:52;;;;;;;22.97;19.90;;;7.10;48.20;;;;;;10374989;28;20232;-70
2022/12/20 13:59:59;;;;;;;23.67;20.23;;;7.50;45.90;;;;;;10377093;28;20248;-71
2022/12/20 14:05:18;;;;;;;24.17;21.57;;;7.70;45.00;;;;;;10376009;28;20276;-71
2022/12/20 14:10:24;;;;;;;24.80;22.10;;;7.80;44.00;;;;;;10373448;28;20229;-71
2022/12/20 14:15:30;;;;;;;24.60;21.27;;;7.70;43.80;;;;;;10377170;28;20230;-71
2022/12/20 14:20:36;;;;;;;22.93;20.50;;;7.70;43.60;;;;;;10400799;23;20220;-69
2022/12/20 14:25:44;;;;;;;23.50;21.00;;;7.70;43.50;;;;;;10445417;28;20236;-69
2022/12/20 14:30:47;;;;;;;27.67;24.77;;;7.60;43.40;;;;;;10463837;28;20662;-69
2022/12/20 14:35:52;;;;;;;25.93;22.13;;;7.60;44.50;;;;;;10464589;28;20227;-69
2022/12/20 14:40:55;;;;;;;21.83;19.13;;;7.70;44.10;;;;;;10461615;28;20227;-69
2022/12/20 14:46:16;;;;;;;23.50;20.60;;;7.70;43.80;;;;;;10460705;28;20671;-69
2022/12/20 14:51:21;;;;;;;21.07;18.10;;;7.60;43.30;;;;;;10455224;28;20303;-69
2022/12/20 14:56:24;;;;;;;21.93;19.13;;;7.50;43.20;;;;;;10455191;28;20232;-69
2022/12/20 15:01:34;;;;;;;19.60;16.83;;;7.40;43.30;;;;;;10454945;28;20757;-69
2022/12/20 15:06:48;;;;;;;22.20;19.50;;;7.40;43.50;;;;;;10464719;28;20240;-73
2022/12/20 15:11:51;;;;;;;25.83;21.50;;;7.30;43.80;;;;;;10457216;28;20229;-68
2022/12/20 15:16:55;;;;;;;20.47;18.03;;;7.40;44.10;;;;;;10470264;28;20224;-73
2022/12/20 15:22:00;;;;;;;23.87;21.27;;;7.40;44.00;;;;;;10471048;28;20326;-72
2022/12/20 15:27:03;;;;;;;23.30;20.80;;;7.40;43.70;;;;;;10457043;28;20227;-69
2022/12/20 15:32:14;;;;;;;25.20;19.60;;;7.30;43.50;;;;;;10455966;28;20696;-69
2022/12/20 15:37:19;;;;;;;23.60;20.20;;;7.30;43.70;;;;;;10458333;28;20799;-69
2022/12/20 15:42:23;;;;;;;20.43;18.23;;;7.20;43.60;;;;;;10456091;28;20239;-68
2022/12/20 15:47:26;;;;;;;22.03;19.30;;;7.20;43.60;;;;;;10457000;28;20729;-67
2022/12/20 15:52:32;;;;;;;20.37;17.83;;;7.20;43.30;;;;;;10457275;28;21096;-72
2022/12/20 15:57:35;;;;;;;20.23;17.57;;;7.10;43.30;;;;;;10458801;28;20240;-69
2022/12/20 16:02:38;;;;;;;20.57;17.87;;;7.10;43.30;;;;;;10465738;28;20233;-73
2022/12/20 16:07:43;;;;;;;18.43;16.00;;;7.00;43.40;;;;;;10470008;28;20223;-67
2022/12/20 16:12:47;;;;;;;21.63;19.20;;;7.00;43.40;;;;;;10467393;28;20738;-72
2022/12/20 16:17:50;;;;;;;22.10;19.70;;;7.00;43.40;;;;;;10466573;28;20231;-68
2022/12/20 16:22:55;;;;;;;23.20;20.20;;;6.90;43.40;;;;;;10468902;28;20220;-72
2022/12/20 16:27:58;;;;;;;23.23;20.77;;;6.90;43.50;;;;;;10471573;28;20246;-73
2022/12/20 16:33:03;;;;;;;22.57;20.00;;;6.80;43.50;;;;;;10476725;28;20331;-72
2022/12/20 16:38:12;;;;;;;22.50;18.50;;;6.80;43.70;;;;;;10459007;28;20751;-67
2022/12/20 16:43:17;;;;;;;20.23;17.37;;;6.80;43.70;;;;;;10467246;28;20224;-67
2022/12/20 16:48:20;;;;;;;24.60;21.93;;;6.80;43.60;;;;;;10479235;28;20705;-67
2022/12/20 16:53:24;;;;;;;28.00;25.03;;;6.80;43.70;;;;;;10472180;28;20236;-68
2022/12/20 16:58:28;;;;;;;25.33;21.97;;;6.80;43.70;;;;;;10478959;28;20232;-73
2022/12/20 17:03:52;;;;;;;22.60;19.93;;;6.80;43.70;;;;;;10476294;28;20695;-73
2022/12/20 17:08:56;;;;;;;22.83;20.47;;;6.70;43.90;;;;;;10480753;28;20225;-71
2022/12/20 17:14:18;;;;;;;24.30;20.67;;;6.70;44.10;;;;;;10467575;28;20228;-71
2022/12/20 17:19:22;;;;;;;22.20;19.37;;;6.70;44.10;;;;;;10480241;28;20749;-71
2022/12/20 17:24:26;;;;;;;21.30;18.80;;;6.70;44.10;;;;;;10476653;28;20232;-69
2022/12/20 17:29:29;;;;;;;20.03;17.17;;;6.70;44.10;;;;;;10469406;28;20721;-70
2022/12/20 17:34:33;;;;;;;21.87;19.10;;;6.70;44.10;;;;;;10474597;28;20247;-70
2022/12/20 17:39:38;;;;;;;23.20;19.17;;;6.70;44.10;;;;;;10475728;28;20224;-70
2022/12/20 17:44:41;;;;;;;24.87;21.43;;;6.70;44.10;;;;;;10473171;28;20224;-71
2022/12/20 17:49:44;;;;;;;22.57;20.13;;;6.70;44.10;;;;;;10489590;28;20222;-71
2022/12/20 17:54:49;;;;;;;21.37;17.60;;;6.80;44.20;;;;;;10475280;28;20235;-73
2022/12/20 17:59:52;;;;;;;25.60;22.80;;;6.80;45.70;;;;;;10473917;28;20228;-71
2022/12/20 18:04:55;;;;;;;24.73;22.13;;;6.90;45.40;;;;;;10469275;28;20228;-71
2022/12/20 18:09:59;;;;;;;24.87;21.73;;;7.00;45.60;;;;;;10465013;28;20232;-71
2022/12/20 18:15:05;;;;;;;23.80;21.30;;;7.10;44.40;;;;;;10468891;28;20846;-70
2022/12/20 18:20:10;;;;;;;25.57;20.90;;;7.10;44.40;;;;;;10473870;28;20262;-70
2022/12/20 18:25:16;;;;;;;25.07;22.37;;;7.10;43.90;;;;;;10467296;28;20604;-71
2022/12/20 18:30:20;;;;;;;23.90;21.40;;;7.00;43.60;;;;;;10473674;28;20772;-72
2022/12/20 18:35:23;;;;;;;22.73;20.13;;;7.00;43.80;;;;;;10467287;28;20719;-71
2022/12/20 18:40:28;;;;;;;22.27;19.90;;;6.90;44.00;;;;;;10472203;28;20225;-71
2022/12/20 18:45:33;;;;;;;23.70;20.40;;;6.90;44.10;;;;;;10466875;28;20236;-71
2022/12/20 18:50:36;;;;;;;20.70;18.50;;;6.90;44.10;;;;;;10472735;28;20247;-71
2022/12/20 18:55:41;;;;;;;27.80;22.23;;;6.90;44.00;;;;;;10470820;28;20248;-71
2022/12/20 19:00:44;;;;;;;24.67;21.97;;;6.90;44.00;;;;;;10470190;28;20220;-72
2022/12/20 19:05:52;;;;;;;26.17;23.37;;;6.90;43.90;;;;;;10467885;28;20267;-70
2022/12/20 19:11:00;;;;;;;24.73;21.43;;;6.80;44.00;;;;;;10466189;28;20495;-70
2022/12/20 19:16:07;;;;;;;23.83;21.10;;;6.80;44.20;;;;;;10467156;28;20610;-70
2022/12/20 19:21:12;;;;;;;24.80;21.93;;;6.80;44.20;;;;;;10468631;28;20308;-70
2022/12/20 19:26:18;;;;;;;27.00;23.10;;;6.80;44.10;;;;;;10466291;28;20228;-70
2022/12/20 19:31:23;;;;;;;25.40;19.73;;;6.80;44.20;;;;;;10467576;28;20216;-70
2022/12/20 19:36:30;;;;;;;23.40;19.67;;;6.80;43.90;;;;;;10479895;28;20251;-70
2022/12/20 19:41:35;;;;;;;25.37;21.30;;;6.70;43.80;;;;;;10462677;28;20750;-70
2022/12/20 19:46:39;;;;;;;23.30;18.67;;;6.70;43.80;;;;;;10460980;28;20231;-70
2022/12/20 19:51:42;;;;;;;22.90;19.47;;;6.60;43.90;;;;;;10460749;28;20573;-71
2022/12/20 19:56:46;;;;;;;22.07;18.63;;;6.50;43.90;;;;;;10469443;28;20240;-71
2022/12/20 20:01:50;;;;;;;21.57;17.83;;;6.50;44.00;;;;;;10458525;28;20229;-70
2022/12/20 20:06:55;;;;;;;20.43;18.07;;;6.40;43.90;;;;;;10453683;28;20238;-70
2022/12/20 20:11:59;;;;;;;21.33;17.77;;;6.40;43.90;;;;;;10459940;28;20220;-70
2022/12/20 20:17:03;;;;;;;21.53;18.20;;;6.40;44.10;;;;;;10466885;28;20224;-70
2022/12/20 20:22:06;;;;;;;21.63;18.97;;;6.40;44.80;;;;;;10468099;28;20645;-70
2022/12/20 20:27:11;;;;;;;21.83;17.87;;;6.50;44.10;;;;;;10464349;28;20231;-71
2022/12/20 20:32:14;;;;;;;19.63;17.17;;;6.50;44.20;;;;;;10473640;28;20231;-69
2022/12/20 20:37:17;;;;;;;20.20;17.37;;;6.60;44.20;;;;;;10462628;28;20231;-69
2022/12/20 20:42:22;;;;;;;21.00;18.30;;;6.60;44.00;;;;;;10477233;28;20228;-69
2022/12/20 20:47:25;;;;;;;19.57;17.17;;;6.60;44.00;;;;;;10472493;28;20220;-69
2022/12/20 20:52:28;;;;;;;21.03;17.30;;;6.70;44.10;;;;;;10471451;28;20831;-70
2022/12/20 20:57:33;;;;;;;21.67;18.20;;;6.70;44.10;;;;;;10472267;28;20308;-69
2022/12/20 21:02:36;;;;;;;22.33;18.70;;;6.70;44.10;;;;;;10473450;28;20225;-69
2022/12/20 21:07:41;;;;;;;21.43;19.10;;;6.70;44.10;;;;;;10477212;28;20725;-69
2022/12/20 21:12:45;;;;;;;21.60;18.30;;;6.70;44.10;;;;;;10468117;28;20229;-69
2022/12/20 21:17:49;;;;;;;22.73;18.50;;;6.70;44.10;;;;;;10474881;28;20221;-69
2022/12/20 21:22:52;;;;;;;24.23;19.03;;;6.70;44.10;;;;;;10474004;28;20230;-68
2022/12/20 21:27:57;;;;;;;24.10;19.30;;;6.70;44.10;;;;;;10465134;28;20232;-70
2022/12/20 21:33:00;;;;;;;22.83;18.33;;;6.70;44.10;;;;;;10466644;28;20237;-70
2022/12/20 21:38:04;;;;;;;25.27;20.27;;;6.70;44.10;;;;;;10472581;28;20684;-70
2022/12/20 21:43:08;;;;;;;25.67;20.83;;;6.70;44.10;;;;;;10479744;28;20217;-69
2022/12/20 21:48:12;;;;;;;26.27;20.33;;;6.70;44.10;;;;;;10485456;28;20222;-69
2022/12/20 21:53:15;;;;;;;27.70;20.13;;;6.70;44.10;;;;;;10482161;28;20220;-69
2022/12/20 21:58:23;;;;;;;26.20;20.63;;;6.70;44.10;;;;;;10482645;28;20236;-68
2022/12/20 22:03:26;;;;;;;22.43;18.57;;;6.70;44.10;;;;;;10478149;28;20227;-68
2022/12/20 22:08:31;;;;;;;22.67;19.07;;;6.70;44.10;;;;;;10480886;28;20295;-69
2022/12/20 22:13:37;;;;;;;22.73;18.67;;;6.70;44.10;;;;;;10477448;28;20232;-69
2022/12/20 22:18:47;;;;;;;23.63;19.13;;;6.70;44.10;;;;;;10477525;28;20304;-69
2022/12/20 22:23:50;;;;;;;18.67;16.47;;;6.70;44.10;;;;;;10478488;28;20235;-69
2022/12/20 22:28:57;;;;;;;21.87;18.37;;;6.70;44.10;;;;;;10478725;28;20247;-69
2022/12/20 22:34:01;;;;;;;23.07;19.57;;;6.70;44.10;;;;;;10472845;28;20224;-69
2022/12/20 22:39:04;;;;;;;22.93;17.97;;;6.70;44.10;;;;;;10469988;28;20251;-69
2022/12/20 22:44:08;;;;;;;22.90;18.50;;;6.60;44.00;;;;;;10467891;28;20687;-69
2022/12/20 22:49:16;;;;;;;21.23;17.13;;;6.60;44.10;;;;;;10464598;28;20268;-69
2022/12/20 22:54:19;;;;;;;20.30;17.60;;;6.60;44.30;;;;;;10465395;28;20232;-69
2022/12/20 22:59:24;;;;;;;20.87;17.07;;;6.60;44.00;;;;;;10461018;28;20632;-69
2022/12/20 23:04:27;;;;;;;21.30;17.63;;;6.60;44.10;;;;;;10457639;28;20239;-70
2022/12/20 23:09:30;;;;;;;19.07;16.43;;;6.60;44.00;;;;;;10460881;28;20230;-70
2022/12/20 23:25:28;;;;;;;18.53;15.50;;;6.60;44.00;;;;;;10461678;28;20311;-72
2022/12/20 23:30:32;;;;;;;18.97;15.67;;;6.60;44.00;;;;;;10463346;28;20229;-70
2022/12/20 23:35:35;;;;;;;16.43;14.63;;;6.60;44.00;;;;;;10459518;28;20712;-70
2022/12/20 23:40:40;;;;;;;18.67;14.60;;;6.60;44.00;;;;;;10457890;28;20236;-70
2022/12/20 23:45:45;;;;;;;18.00;15.10;;;6.50;44.00;;;;;;10460109;28;20236;-70
2022/12/20 23:50:55;;;;;;;19.67;15.90;;;6.50;43.90;;;;;;10455512;28;20256;-70
2022/12/20 23:56:02;;;;;;;19.83;16.70;;;6.50;43.90;;;;;;10456163;28;20247;-70
